Time;durP1;ratioP1;P1;durP2;ratioP2;P2;SDS_P1;SDS_P2;PMS_P1;PMS_P2;Temp;Humidity;BMP_temperature;BMP_pressure;BME280_temperature;BME280_humidity;BME280_pressure;Samples;Min_cycle;Max_cycle;Signal;HPM_P1;HPM_P2
2023/12/20 00:02:19;;;;;;;13.50;10.30;;;7.10;1.00;;;;;;4993486;28;20196;-70
2023/12/20 00:04:46;;;;;;;11.23;9.50;;;7.10;1.00;;;;;;4994236;28;20286;-70
2023/12/20 00:07:14;;;;;;;13.80;9.80;;;7.00;1.00;;;;;;4992490;28;20189;-71
2023/12/20 00:09:41;;;;;;;14.70;9.93;;;7.00;1.00;;;;;;5011848;28;20195;-70
2023/12/20 00:12:08;;;;;;;14.17;11.97;;;6.90;1.00;;;;;;4999649;28;20634;-73
2023/12/20 00:14:36;;;;;;;21.47;16.07;;;6.90;1.00;;;;;;4993350;28;20620;-69
2023/12/20 00:17:03;;;;;;;18.60;13.90;;;6.90;1.00;;;;;;4994309;28;20700;-70
2023/12/20 00:19:30;;;;;;;23.53;15.20;;;6.90;1.00;;;;;;5008849;28;20792;-71
2023/12/20 00:21:59;;;;;;;24.93;14.97;;;6.90;1.00;;;;;;5005711;28;20193;-70
2023/12/20 00:24:26;;;;;;;17.77;11.90;;;7.00;1.00;;;;;;5012851;28;20260;-69
2023/12/20 00:26:53;;;;;;;19.57;12.23;;;7.00;1.00;;;;;;5016251;28;20236;-70
2023/12/20 00:29:20;;;;;;;21.23;11.27;;;6.90;1.00;;;;;;5006389;28;20634;-70
2023/12/20 00:31:47;;;;;;;19.40;12.33;;;6.90;1.00;;;;;;5006285;28;20192;-70
2023/12/20 00:34:14;;;;;;;17.07;11.50;;;6.90;1.00;;;;;;4992091;28;20196;-70
2023/12/20 00:36:41;;;;;;;14.03;11.00;;;6.80;1.00;;;;;;4975841;28;20215;-70
2023/12/20 00:39:08;;;;;;;18.40;11.57;;;6.80;1.00;;;;;;5008749;28;20629;-69
2023/12/20 00:41:35;;;;;;;17.50;11.47;;;6.80;1.00;;;;;;4980481;28;20685;-69
2023/12/20 00:44:02;;;;;;;18.33;12.73;;;6.80;1.00;;;;;;5010675;28;20209;-70
2023/12/20 00:46:29;;;;;;;20.73;12.33;;;6.80;1.00;;;;;;5009886;28;20312;-69
2023/12/20 00:48:56;;;;;;;19.13;12.87;;;6.80;1.00;;;;;;5011402;28;20545;-68
2023/12/20 00:51:24;;;;;;;16.97;13.00;;;6.70;1.00;;;;;;4976229;28;20200;-69
2023/12/20 00:53:54;;;;;;;20.40;12.80;;;6.80;1.00;;;;;;5009153;28;20196;-68
2023/12/20 00:56:21;;;;;;;16.03;11.43;;;6.80;1.00;;;;;;4998656;28;20190;-70
2023/12/20 00:58:48;;;;;;;19.93;10.73;;;6.80;1.00;;;;;;4993781;28;20251;-70
2023/12/20 01:01:15;;;;;;;15.07;11.53;;;6.80;1.00;;;;;;4991517;28;20739;-70
2023/12/20 01:03:43;;;;;;;23.27;12.37;;;6.70;1.00;;;;;;5010549;28;20986;-68
2023/12/20 01:06:10;;;;;;;15.27;11.33;;;6.70;1.00;;;;;;5000819;28;20588;-68
2023/12/20 01:08:37;;;;;;;16.00;11.30;;;6.70;1.00;;;;;;5010655;28;20271;-70
2023/12/20 01:11:05;;;;;;;16.43;11.20;;;6.70;1.00;;;;;;4992046;28;20288;-69
2023/12/20 01:13:32;;;;;;;19.97;12.03;;;6.70;1.00;;;;;;4963110;28;20300;-71
2023/12/20 01:15:59;;;;;;;17.77;11.13;;;6.70;1.00;;;;;;4987319;28;20204;-71
2023/12/20 01:18:27;;;;;;;20.30;11.90;;;6.70;1.00;;;;;;4992589;28;20201;-70
2023/12/20 01:20:54;;;;;;;18.40;10.03;;;6.80;1.00;;;;;;4989467;28;20209;-70
2023/12/20 01:23:20;;;;;;;22.00;11.10;;;6.80;1.00;;;;;;5010941;28;20197;-70
2023/12/20 01:25:48;;;;;;;16.47;10.73;;;6.80;1.00;;;;;;5005902;28;20204;-69
2023/12/20 01:28:15;;;;;;;14.93;10.77;;;6.80;1.00;;;;;;4990460;28;20241;-70
2023/12/20 01:30:42;;;;;;;14.33;10.00;;;6.90;1.00;;;;;;4983842;28;20227;-70
2023/12/20 01:33:10;;;;;;;12.63;9.83;;;6.90;1.00;;;;;;4988160;28;20201;-69
2023/12/20 01:35:37;;;;;;;14.23;10.47;;;6.90;1.00;;;;;;5001591;28;20279;-69
2023/12/20 01:38:04;;;;;;;16.27;11.47;;;6.80;1.00;;;;;;4975911;28;20296;-70
2023/12/20 01:40:31;;;;;;;16.10;10.70;;;6.70;1.00;;;;;;4989359;28;20189;-69
2023/12/20 01:43:06;;;;;;;15.40;9.93;;;6.50;1.00;;;;;;4978719;28;20256;-71
2023/12/20 01:45:33;;;;;;;15.63;9.87;;;6.30;1.00;;;;;;5003428;28;20204;-71
2023/12/20 01:48:02;;;;;;;15.30;9.97;;;6.20;1.00;;;;;;5004311;28;20803;-71
2023/12/20 01:50:31;;;;;;;13.83;10.70;;;6.10;1.00;;;;;;5009565;28;20253;-70
2023/12/20 01:53:00;;;;;;;12.10;10.03;;;6.00;1.00;;;;;;4984307;28;20211;-69
2023/12/20 01:55:31;;;;;;;16.10;10.27;;;5.90;1.00;;;;;;5008522;28;20205;-69
2023/12/20 01:57:58;;;;;;;18.03;11.20;;;5.90;1.00;;;;;;4999870;28;20193;-69
2023/12/20 02:00:27;;;;;;;25.53;11.53;;;6.00;1.00;;;;;;5008679;28;20720;-68
2023/12/20 02:02:55;;;;;;;17.40;11.77;;;5.90;1.00;;;;;;5007483;28;20556;-70
2023/12/20 02:05:22;;;;;;;22.60;11.50;;;5.90;1.00;;;;;;5001642;28;20206;-70
2023/12/20 02:07:49;;;;;;;11.67;10.17;;;5.80;1.00;;;;;;5000648;28;20665;-68
2023/12/20 02:10:17;;;;;;;18.63;11.63;;;5.80;1.00;;;;;;4990714;28;20541;-62
2023/12/20 02:12:44;;;;;;;15.30;11.80;;;5.80;1.00;;;;;;5006611;28;20220;-65
2023/12/20 02:15:11;;;;;;;17.57;11.17;;;5.70;1.00;;;;;;5008427;28;20193;-65
2023/12/20 02:17:39;;;;;;;17.87;11.60;;;5.70;1.00;;;;;;4986283;28;20193;-65
2023/12/20 02:20:07;;;;;;;25.67;15.50;;;5.80;1.00;;;;;;5001086;28;20196;-65
2023/12/20 02:22:34;;;;;;;17.27;11.27;;;6.00;1.00;;;;;;5008121;28;20634;-65
2023/12/20 02:25:01;;;;;;;15.40;10.80;;;6.00;1.00;;;;;;5011758;28;20255;-64
2023/12/20 02:27:29;;;;;;;18.60;11.17;;;6.00;1.00;;;;;;4968303;28;1095844;-64
2023/12/20 02:29:56;;;;;;;12.57;10.50;;;6.00;99.90;;;;;;4987369;28;20259;-65
2023/12/20 02:32:27;;;;;;;18.87;11.00;;;5.90;1.00;;;;;;5009010;28;20193;-64
2023/12/20 02:34:55;;;;;;;14.33;12.70;;;6.00;99.90;;;;;;5009287;28;20200;-66
2023/12/20 02:37:22;;;;;;;10.87;9.67;;;6.10;99.90;;;;;;4991811;28;20204;-65
2023/12/20 02:39:49;;;;;;;13.80;9.43;;;6.10;99.90;;;;;;4992065;28;20259;-64
2023/12/20 02:42:16;;;;;;;9.57;8.50;;;6.20;99.90;;;;;;4980488;28;20204;-65
2023/12/20 02:44:43;;;;;;;9.73;7.90;;;6.20;99.90;;;;;;5007304;28;20220;-65
2023/12/20 02:47:10;;;;;;;18.77;8.30;;;6.20;99.90;;;;;;4991721;28;20245;-64
2023/12/20 02:49:37;;;;;;;12.17;8.10;;;6.20;99.90;;;;;;4982481;28;20204;-64
2023/12/20 02:52:05;;;;;;;12.07;8.60;;;6.20;99.90;;;;;;5001858;28;20212;-64
2023/12/20 02:54:32;;;;;;;9.50;7.83;;;6.20;99.90;;;;;;4983870;28;20216;-65
2023/12/20 02:56:59;;;;;;;16.00;9.13;;;6.20;99.90;;;;;;4991284;28;20209;-67
2023/12/20 02:59:26;;;;;;;10.73;8.70;;;6.20;99.90;;;;;;5000834;28;20721;-70
2023/12/20 03:05:52;;;;;;;13.40;8.97;;;6.20;99.90;;;;;;5004182;28;20697;-71
2023/12/20 03:08:19;;;;;;;16.07;9.70;;;6.20;99.90;;;;;;5008614;28;20205;-70
2023/12/20 03:10:46;;;;;;;22.27;10.83;;;6.20;99.90;;;;;;5008826;28;20304;-70
2023/12/20 03:13:14;;;;;;;11.67;9.67;;;6.30;99.90;;;;;;4990279;28;20588;-70
2023/12/20 03:15:41;;;;;;;17.60;9.87;;;6.30;99.90;;;;;;5008267;28;20207;-70
2023/12/20 03:18:08;;;;;;;14.50;10.20;;;6.40;99.90;;;;;;4991051;28;20334;-70
2023/12/20 03:20:35;;;;;;;15.70;10.13;;;6.40;99.90;;;;;;5008316;28;20214;-70
2023/12/20 03:23:02;;;;;;;21.00;10.53;;;6.40;99.90;;;;;;5008161;28;20197;-70
2023/12/20 03:25:29;;;;;;;12.63;10.30;;;6.30;99.90;;;;;;4992560;28;20212;-70
2023/12/20 03:27:56;;;;;;;11.27;10.00;;;6.30;99.90;;;;;;5008427;28;20898;-70
2023/12/20 03:30:23;;;;;;;15.50;9.90;;;6.30;99.90;;;;;;4988458;28;20214;-70
2023/12/20 03:32:50;;;;;;;19.57;10.20;;;6.30;99.90;;;;;;4988664;28;20593;-70
2023/12/20 03:35:19;;;;;;;16.47;10.87;;;6.30;99.90;;;;;;5007329;28;20200;-69
2023/12/20 03:37:46;;;;;;;15.13;10.33;;;6.40;99.90;;;;;;5002291;28;20198;-70
2023/12/20 03:40:14;;;;;;;15.13;10.67;;;6.40;99.90;;;;;;4989797;28;20277;-70
2023/12/20 03:42:41;;;;;;;19.57;10.87;;;6.40;99.90;;;;;;4990410;28;20284;-70
2023/12/20 03:45:08;;;;;;;15.23;11.13;;;6.30;99.90;;;;;;4990804;28;20217;-70
2023/12/20 03:47:35;;;;;;;14.20;11.10;;;6.10;99.90;;;;;;4989908;28;20213;-70
2023/12/20 03:50:02;;;;;;;12.37;10.50;;;5.90;99.90;;;;;;4988635;28;20273;-69
2023/12/20 03:52:29;;;;;;;11.67;10.50;;;5.90;99.90;;;;;;4991245;28;20213;-68
2023/12/20 03:54:56;;;;;;;12.13;10.93;;;6.00;99.90;;;;;;4992730;28;20205;-69
2023/12/20 03:57:23;;;;;;;15.27;11.17;;;6.10;99.90;;;;;;4991980;28;20596;-69
2023/12/20 03:59:50;;;;;;;13.07;11.57;;;6.20;99.90;;;;;;4990372;28;20205;-69
2023/12/20 04:02:17;;;;;;;24.93;11.67;;;6.30;99.90;;;;;;4990334;28;20208;-69
2023/12/20 04:04:44;;;;;;;15.77;11.27;;;6.30;99.90;;;;;;4992582;28;20196;-70
2023/12/20 04:07:11;;;;;;;17.20;12.30;;;6.30;99.90;;;;;;4991898;28;20226;-69
2023/12/20 04:09:40;;;;;;;20.07;13.43;;;6.30;99.90;;;;;;4990482;28;20642;-67
2023/12/20 04:12:07;;;;;;;17.17;12.83;;;6.20;99.90;;;;;;4988723;28;20273;-67
2023/12/20 04:14:34;;;;;;;16.90;12.17;;;6.20;99.90;;;;;;4984740;28;20205;-67
2023/12/20 04:17:01;;;;;;;22.33;12.77;;;6.00;99.90;;;;;;4989890;28;20205;-67
2023/12/20 04:19:28;;;;;;;15.77;13.07;;;6.00;99.90;;;;;;4990932;28;20528;-67
2023/12/20 04:21:55;;;;;;;17.33;13.00;;;6.00;99.90;;;;;;4991821;28;20194;-67
2023/12/20 04:24:22;;;;;;;27.57;13.83;;;5.90;99.90;;;;;;4988025;28;20190;-63
2023/12/20 04:26:49;;;;;;;17.13;11.17;;;5.90;99.90;;;;;;4987241;28;20237;-66
2023/12/20 04:29:16;;;;;;;17.90;11.93;;;5.80;99.90;;;;;;5004637;28;20219;-66
2023/12/20 04:31:43;;;;;;;28.00;12.13;;;5.80;99.90;;;;;;5007866;28;20239;-66
2023/12/20 04:34:10;;;;;;;17.13;12.33;;;6.00;99.90;;;;;;4983465;28;20698;-63
2023/12/20 04:36:37;;;;;;;16.80;12.83;;;6.00;99.90;;;;;;5005467;28;20250;-64
2023/12/20 04:39:04;;;;;;;19.87;13.40;;;6.00;99.90;;;;;;5002046;28;20211;-65
2023/12/20 04:41:31;;;;;;;24.90;13.77;;;6.10;99.90;;;;;;4989506;28;20219;-62
2023/12/20 04:43:58;;;;;;;29.17;14.63;;;6.10;99.90;;;;;;4992229;28;20204;-62
2023/12/20 04:46:25;;;;;;;29.67;13.97;;;6.20;99.90;;;;;;5010188;28;20205;-63
2023/12/20 04:48:52;;;;;;;20.47;14.13;;;6.10;99.90;;;;;;5008183;28;20284;-63
2023/12/20 04:51:20;;;;;;;20.90;15.63;;;6.00;99.90;;;;;;4992903;28;20366;-62
2023/12/20 04:53:47;;;;;;;15.33;13.80;;;6.00;99.90;;;;;;4992589;28;20201;-63
2023/12/20 04:56:14;;;;;;;19.73;14.63;;;5.90;99.90;;;;;;5010513;28;20197;-62
2023/12/20 04:58:42;;;;;;;21.13;14.77;;;5.90;99.90;;;;;;5010019;28;20733;-63
2023/12/20 05:01:09;;;;;;;16.67;13.87;;;6.00;99.90;;;;;;4992252;28;20219;-63
2023/12/20 05:03:36;;;;;;;20.97;15.33;;;6.10;99.90;;;;;;5006866;28;20235;-63
2023/12/20 05:06:03;;;;;;;17.00;15.00;;;6.10;99.90;;;;;;4983481;28;20705;-63
2023/12/20 05:08:30;;;;;;;17.50;14.07;;;6.20;99.90;;;;;;5010471;28;20204;-64
2023/12/20 05:10:57;;;;;;;24.10;15.40;;;6.20;99.90;;;;;;4992707;28;20205;-63
2023/12/20 05:13:24;;;;;;;25.73;15.37;;;6.30;99.90;;;;;;5014315;28;20560;-63
2023/12/20 05:16:04;;;;;;;22.97;14.30;;;6.30;99.90;;;;;;4996291;28;20192;-63
2023/12/20 05:18:31;;;;;;;23.63;14.73;;;6.30;99.90;;;;;;4992559;28;20344;-63
2023/12/20 05:20:58;;;;;;;22.00;15.80;;;6.40;99.90;;;;;;4991471;28;20271;-65
2023/12/20 05:23:25;;;;;;;19.87;15.50;;;6.40;99.90;;;;;;4983697;28;20190;-63
2023/12/20 05:25:52;;;;;;;21.60;15.63;;;6.40;99.90;;;;;;5005567;28;20271;-62
2023/12/20 05:28:19;;;;;;;22.30;15.87;;;6.30;99.90;;;;;;5009347;28;20233;-63
2023/12/20 05:30:47;;;;;;;22.80;14.93;;;6.30;99.90;;;;;;5007717;28;20193;-64
2023/12/20 05:33:14;;;;;;;18.37;14.53;;;6.20;99.90;;;;;;4991121;28;20212;-63
2023/12/20 05:35:41;;;;;;;23.03;15.77;;;6.10;99.90;;;;;;5006841;28;20217;-64
2023/12/20 05:38:10;;;;;;;28.73;15.13;;;6.10;99.90;;;;;;4988063;28;20214;-61
2023/12/20 05:40:37;;;;;;;21.20;14.53;;;6.10;99.90;;;;;;5004963;28;20262;-68
2023/12/20 05:43:04;;;;;;;17.53;15.63;;;6.10;99.90;;;;;;5009370;28;20204;-69
2023/12/20 05:45:31;;;;;;;20.20;15.30;;;6.10;99.90;;;;;;4975679;28;20948;-71
2023/12/20 05:47:58;;;;;;;21.93;15.20;;;6.00;99.90;;;;;;5000336;28;20754;-71
2023/12/20 05:50:25;;;;;;;28.03;20.03;;;6.10;99.90;;;;;;4991362;28;20263;-71
2023/12/20 05:52:53;;;;;;;16.63;15.03;;;5.90;99.90;;;;;;5012259;28;20269;-72
2023/12/20 05:55:20;;;;;;;31.83;16.50;;;5.90;99.90;;;;;;5009418;28;20197;-69
2023/12/20 05:57:48;;;;;;;20.83;15.37;;;5.90;99.90;;;;;;5009413;28;20259;-70
2023/12/20 06:00:15;;;;;;;15.23;13.70;;;6.00;99.90;;;;;;5010221;28;20232;-70
2023/12/20 06:02:43;;;;;;;17.27;15.47;;;6.00;99.90;;;;;;4999882;28;20204;-71
2023/12/20 06:05:10;;;;;;;25.27;16.10;;;6.10;99.90;;;;;;5008809;28;20201;-69
2023/12/20 06:07:37;;;;;;;22.20;15.47;;;6.20;99.90;;;;;;4994747;28;20295;-68
2023/12/20 06:10:06;;;;;;;17.73;14.60;;;6.20;99.90;;;;;;4991262;28;20216;-67
2023/12/20 06:12:35;;;;;;;15.43;13.50;;;6.20;99.90;;;;;;4990916;28;20201;-67
2023/12/20 06:15:03;;;;;;;16.37;14.70;;;6.20;99.90;;;;;;5001522;28;20185;-69
2023/12/20 06:17:31;;;;;;;18.97;15.90;;;6.20;99.90;;;;;;4963162;28;20207;-69
2023/12/20 06:19:58;;;;;;;16.13;14.43;;;6.20;99.90;;;;;;5008947;28;20200;-69
2023/12/20 06:22:25;;;;;;;17.87;14.60;;;6.20;99.90;;;;;;4986990;28;20616;-68
2023/12/20 06:24:52;;;;;;;17.80;14.60;;;6.20;99.90;;;;;;5008354;28;20229;-69
2023/12/20 06:27:19;;;;;;;17.97;14.43;;;6.20;99.90;;;;;;4990030;28;20243;-69
2023/12/20 06:29:46;;;;;;;23.53;15.13;;;6.20;99.90;;;;;;4990839;28;20208;-64
2023/12/20 06:32:13;;;;;;;24.03;15.90;;;6.30;99.90;;;;;;5003538;28;20198;-64
2023/12/20 06:34:40;;;;;;;23.63;15.60;;;6.30;99.90;;;;;;4984403;28;20266;-64
2023/12/20 06:37:07;;;;;;;22.93;15.57;;;6.30;99.90;;;;;;5009353;28;20216;-64
2023/12/20 06:39:34;;;;;;;20.77;16.00;;;6.40;99.90;;;;;;4989695;28;20197;-64
2023/12/20 06:42:01;;;;;;;21.23;15.57;;;6.30;99.90;;;;;;4991792;28;20255;-64
2023/12/20 06:44:28;;;;;;;30.80;15.93;;;6.40;99.90;;;;;;4990549;28;20668;-64
2023/12/20 06:46:55;;;;;;;27.37;16.37;;;6.40;99.90;;;;;;4987483;28;20709;-64
2023/12/20 06:49:22;;;;;;;31.43;15.37;;;6.30;99.90;;;;;;4988035;28;20201;-64
2023/12/20 06:51:49;;;;;;;27.97;15.50;;;6.40;99.90;;;;;;4996116;28;20197;-64
2023/12/20 06:54:16;;;;;;;27.53;15.80;;;6.30;99.90;;;;;;4992164;28;20283;-64
2023/12/20 06:56:43;;;;;;;19.10;15.50;;;6.40;99.90;;;;;;5009736;28;20193;-65
2023/12/20 06:59:10;;;;;;;19.77;16.53;;;6.40;99.90;;;;;;4974925;28;20209;-63
2023/12/20 07:01:37;;;;;;;17.20;15.17;;;6.30;99.90;;;;;;4992137;28;20700;-65
2023/12/20 07:04:04;;;;;;;18.70;16.67;;;6.30;99.90;;;;;;5008373;28;20197;-64
2023/12/20 07:06:31;;;;;;;18.73;16.27;;;6.30;99.90;;;;;;4973571;28;20192;-65
2023/12/20 07:08:58;;;;;;;21.90;16.17;;;6.30;99.90;;;;;;5002589;28;20198;-64
2023/12/20 07:11:26;;;;;;;17.67;15.73;;;6.40;99.90;;;;;;5004468;28;20283;-64
2023/12/20 07:13:53;;;;;;;19.83;16.67;;;6.40;99.90;;;;;;4991759;28;20197;-64
2023/12/20 07:16:22;;;;;;;27.00;16.70;;;6.40;99.90;;;;;;4991739;28;20712;-64
2023/12/20 07:18:49;;;;;;;22.87;17.30;;;6.40;99.90;;;;;;5009760;28;20207;-64
2023/12/20 07:21:16;;;;;;;25.63;16.63;;;6.40;99.90;;;;;;4990636;28;20231;-64
2023/12/20 07:23:43;;;;;;;17.47;15.87;;;6.40;99.90;;;;;;5008662;28;20185;-64
2023/12/20 07:26:11;;;;;;;22.87;17.00;;;6.50;99.90;;;;;;5007008;28;20223;-64
2023/12/20 07:28:38;;;;;;;23.43;15.77;;;6.50;99.90;;;;;;4970676;28;20253;-65
2023/12/20 07:31:05;;;;;;;21.90;17.17;;;6.40;99.90;;;;;;5016893;28;20197;-64
2023/12/20 07:33:32;;;;;;;27.33;16.83;;;6.40;99.90;;;;;;4992111;28;20215;-64
2023/12/20 07:36:06;;;;;;;17.33;15.70;;;6.50;99.90;;;;;;5009969;28;20194;-64
2023/12/20 07:38:33;;;;;;;26.20;15.93;;;6.50;99.90;;;;;;5002256;28;20255;-64
2023/12/20 07:41:00;;;;;;;26.80;16.53;;;6.50;99.90;;;;;;5008949;28;20303;-64
2023/12/20 07:43:27;;;;;;;23.33;16.13;;;6.50;99.90;;;;;;4975448;28;20217;-64
2023/12/20 07:45:54;;;;;;;17.60;15.53;;;6.50;99.90;;;;;;4991896;28;20197;-64
2023/12/20 07:48:21;;;;;;;29.13;16.33;;;6.50;99.90;;;;;;4983085;28;20703;-64
2023/12/20 07:50:48;;;;;;;17.40;15.17;;;6.50;99.90;;;;;;4989602;28;20288;-64
2023/12/20 07:53:15;;;;;;;15.40;13.77;;;6.50;99.90;;;;;;4999136;28;20275;-64
2023/12/20 07:55:42;;;;;;;16.53;14.47;;;6.50;99.90;;;;;;5008541;28;20189;-64
2023/12/20 07:58:10;;;;;;;15.03;13.47;;;6.50;99.90;;;;;;4990770;28;20315;-64
2023/12/20 08:00:38;;;;;;;14.80;13.47;;;6.50;99.90;;;;;;5008100;28;20281;-68
2023/12/20 08:03:05;;;;;;;17.67;13.60;;;6.50;99.90;;;;;;4992246;28;20204;-69
2023/12/20 08:05:32;;;;;;;17.97;13.60;;;6.50;99.90;;;;;;4991477;28;20189;-68
2023/12/20 08:07:59;;;;;;;15.23;13.90;;;6.50;99.90;;;;;;4973708;28;20243;-69
2023/12/20 08:10:27;;;;;;;18.73;14.13;;;6.60;99.90;;;;;;5008049;28;20185;-68
2023/12/20 08:12:54;;;;;;;15.93;14.30;;;6.50;99.90;;;;;;4994992;28;21117;-69
2023/12/20 08:15:21;;;;;;;19.03;14.40;;;6.60;99.90;;;;;;4994726;28;20288;-69
2023/12/20 08:17:48;;;;;;;15.47;13.97;;;6.60;99.90;;;;;;4978926;28;20232;-69
2023/12/20 08:20:15;;;;;;;16.17;14.03;;;6.60;99.90;;;;;;5013545;28;20602;-69
2023/12/20 08:22:52;;;;;;;17.50;14.23;;;6.60;99.90;;;;;;4979740;28;20264;-69
2023/12/20 08:25:19;;;;;;;15.73;14.13;;;6.70;99.90;;;;;;4988677;28;20204;-69
2023/12/20 08:27:46;;;;;;;16.80;14.60;;;6.60;99.90;;;;;;5012476;28;20256;-69
2023/12/20 08:30:13;;;;;;;21.43;14.13;;;6.60;99.90;;;;;;4993857;28;20288;-69
2023/12/20 08:32:40;;;;;;;20.23;14.27;;;6.70;99.90;;;;;;4994120;28;20678;-69
2023/12/20 08:35:08;;;;;;;18.80;14.10;;;6.70;99.90;;;;;;5010439;28;20197;-68
2023/12/20 08:37:36;;;;;;;15.63;14.27;;;6.70;99.90;;;;;;4994713;28;20247;-69
2023/12/20 08:40:03;;;;;;;18.20;14.00;;;6.80;99.90;;;;;;4994444;28;20201;-69
2023/12/20 08:42:31;;;;;;;15.47;14.17;;;6.70;99.90;;;;;;4983831;28;20288;-68
2023/12/20 08:44:58;;;;;;;17.90;13.50;;;6.70;99.90;;;;;;4990584;28;20658;-69
2023/12/20 08:47:25;;;;;;;15.40;13.90;;;6.70;99.90;;;;;;4968620;28;20681;-69
2023/12/20 08:49:56;;;;;;;21.63;14.40;;;6.70;99.90;;;;;;5008194;28;20197;-69
2023/12/20 08:52:23;;;;;;;14.77;13.50;;;6.70;99.90;;;;;;4993473;28;20200;-69
2023/12/20 08:54:51;;;;;;;17.07;14.60;;;6.80;99.90;;;;;;4994140;28;20280;-69
2023/12/20 08:57:21;;;;;;;20.13;14.83;;;6.80;99.90;;;;;;5010856;28;20271;-69
2023/12/20 08:59:48;;;;;;;15.57;13.50;;;6.80;99.90;;;;;;4991995;28;20204;-69
2023/12/20 09:02:15;;;;;;;16.13;14.53;;;6.80;99.90;;;;;;4992172;28;20205;-68
2023/12/20 09:04:43;;;;;;;22.17;15.60;;;6.80;99.90;;;;;;4991780;28;20200;-68
2023/12/20 09:07:24;;;;;;;17.17;15.43;;;6.80;99.90;;;;;;5009610;28;20307;-69
2023/12/20 09:09:51;;;;;;;21.37;17.00;;;6.80;99.90;;;;;;5009149;28;20197;-64
2023/12/20 09:12:19;;;;;;;16.03;14.23;;;6.80;99.90;;;;;;4993232;28;20193;-64
2023/12/20 09:14:51;;;;;;;15.67;14.17;;;6.80;99.90;;;;;;4990946;28;20228;-64
2023/12/20 09:17:18;;;;;;;15.07;13.80;;;6.80;99.90;;;;;;5011134;28;21141;-64
2023/12/20 09:19:46;;;;;;;17.53;14.37;;;6.80;99.90;;;;;;4992768;28;20216;-64
2023/12/20 09:22:13;;;;;;;15.80;14.47;;;6.80;99.90;;;;;;4992574;28;20195;-63
2023/12/20 09:24:40;;;;;;;14.17;13.07;;;6.80;99.90;;;;;;4974867;28;20205;-64
2023/12/20 09:27:07;;;;;;;20.97;14.43;;;6.90;99.90;;;;;;4970311;28;20229;-64
2023/12/20 09:29:34;;;;;;;19.03;14.23;;;6.90;99.90;;;;;;5006008;28;20722;-63
2023/12/20 09:32:01;;;;;;;15.83;14.23;;;6.90;99.90;;;;;;5011001;28;20287;-64
2023/12/20 09:34:29;;;;;;;19.40;14.77;;;6.90;99.90;;;;;;4977064;28;20196;-64
2023/12/20 09:36:56;;;;;;;16.30;14.50;;;7.00;99.90;;;;;;4977688;28;20208;-64
2023/12/20 09:39:23;;;;;;;15.93;14.23;;;7.00;99.90;;;;;;4993099;28;20551;-63
2023/12/20 09:42:02;;;;;;;16.13;14.77;;;7.00;99.90;;;;;;4988249;28;20240;-64
2023/12/20 09:44:29;;;;;;;16.37;14.10;;;7.00;99.90;;;;;;4992869;28;20483;-64
2023/12/20 09:46:57;;;;;;;17.60;14.57;;;7.10;99.90;;;;;;5008364;28;20197;-63
2023/12/20 09:49:27;;;;;;;16.67;15.00;;;7.10;99.90;;;;;;4998863;28;20266;-64
2023/12/20 09:51:54;;;;;;;18.13;14.53;;;7.20;99.90;;;;;;4973153;28;20244;-63
2023/12/20 09:54:22;;;;;;;19.53;14.57;;;7.20;99.90;;;;;;4993469;28;20590;-64
2023/12/20 09:56:50;;;;;;;18.73;14.67;;;7.20;99.90;;;;;;4991255;28;20344;-63
2023/12/20 09:59:17;;;;;;;17.47;15.13;;;7.30;99.90;;;;;;5006397;28;20255;-63
2023/12/20 10:01:44;;;;;;;15.50;14.10;;;7.20;99.90;;;;;;4992617;28;20228;-64
2023/12/20 10:04:13;;;;;;;18.23;14.77;;;7.20;99.90;;;;;;5010715;28;20200;-64
2023/12/20 10:06:56;;;;;;;15.23;13.90;;;7.20;99.90;;;;;;4987850;28;20291;-64
2023/12/20 10:09:24;;;;;;;18.07;14.67;;;7.20;99.90;;;;;;4978204;28;20221;-64
2023/12/20 10:11:54;;;;;;;18.50;13.40;;;7.40;99.90;;;;;;4991798;28;20235;-64
2023/12/20 10:14:23;;;;;;;17.90;14.37;;;7.40;99.90;;;;;;4991625;28;20189;-64
2023/12/20 10:16:50;;;;;;;17.40;15.10;;;7.40;99.90;;;;;;4991937;28;20192;-65
2023/12/20 10:19:20;;;;;;;15.77;14.13;;;7.40;99.90;;;;;;4997543;28;20258;-69
2023/12/20 10:21:47;;;;;;;16.90;15.10;;;7.40;99.90;;;;;;5010014;28;20200;-70
2023/12/20 10:24:18;;;;;;;17.07;14.30;;;7.30;99.90;;;;;;4993977;28;20288;-69
2023/12/20 10:26:45;;;;;;;16.77;15.23;;;7.40;99.90;;;;;;5010342;28;20223;-68
2023/12/20 10:29:12;;;;;;;16.03;14.40;;;7.30;99.90;;;;;;4992649;28;20217;-68
2023/12/20 10:31:39;;;;;;;16.13;14.63;;;7.30;99.90;;;;;;4993026;28;20200;-69
2023/12/20 10:34:06;;;;;;;19.47;14.43;;;7.30;99.90;;;;;;5009290;28;20189;-69
2023/12/20 10:36:33;;;;;;;23.27;14.93;;;7.30;99.90;;;;;;4987030;28;20200;-69
2023/12/20 10:39:02;;;;;;;17.50;14.13;;;7.30;99.90;;;;;;5012577;28;20197;-70
2023/12/20 10:41:31;;;;;;;15.67;14.07;;;7.30;99.90;;;;;;4992842;28;20193;-69
2023/12/20 10:44:04;;;;;;;15.07;13.77;;;7.20;99.90;;;;;;5008622;28;20189;-70
2023/12/20 10:46:32;;;;;;;25.47;14.20;;;7.30;99.90;;;;;;5009739;28;20193;-68
2023/12/20 10:49:02;;;;;;;17.13;13.73;;;7.30;99.90;;;;;;5001465;28;20707;-69
2023/12/20 10:51:31;;;;;;;15.00;13.70;;;7.40;99.90;;;;;;4975814;28;20697;-69
2023/12/20 10:53:58;;;;;;;15.40;14.00;;;7.40;99.90;;;;;;5017416;28;20553;-69
2023/12/20 10:56:30;;;;;;;18.73;14.50;;;7.40;99.90;;;;;;4992156;28;20188;-69
2023/12/20 10:59:01;;;;;;;15.27;13.70;;;7.30;99.90;;;;;;4970540;28;20215;-69
2023/12/20 11:01:30;;;;;;;15.43;14.00;;;7.40;99.90;;;;;;5008102;28;20703;-69
2023/12/20 11:03:57;;;;;;;14.47;13.03;;;7.30;99.90;;;;;;4989555;28;20796;-70
2023/12/20 11:06:54;;;;;;;14.90;13.70;;;7.40;99.90;;;;;;4984191;28;20236;-69
2023/12/20 11:09:27;;;;;;;21.40;13.80;;;7.40;99.90;;;;;;4978940;28;20698;-64
2023/12/20 11:11:57;;;;;;;17.20;14.17;;;7.50;99.90;;;;;;5008605;28;20201;-65
2023/12/20 11:14:29;;;;;;;15.77;14.07;;;7.50;99.90;;;;;;4990840;28;20696;-64
2023/12/20 11:17:09;;;;;;;15.53;14.23;;;7.60;99.90;;;;;;4984830;28;20224;-65
2023/12/20 11:19:38;;;;;;;15.37;12.77;;;7.50;99.90;;;;;;4989927;28;20279;-64
2023/12/20 11:22:06;;;;;;;16.93;14.13;;;7.50;99.90;;;;;;4985434;28;20203;-64
2023/12/20 11:24:33;;;;;;;14.90;13.50;;;7.50;99.90;;;;;;4968901;28;20205;-64
2023/12/20 11:27:02;;;;;;;14.77;13.57;;;7.50;99.90;;;;;;4990296;28;20258;-64
2023/12/20 11:29:39;;;;;;;21.27;14.83;;;7.50;99.90;;;;;;5001144;28;20216;-64
2023/12/20 11:32:27;;;;;;;15.50;14.20;;;7.60;99.90;;;;;;4985571;28;20661;-64
2023/12/20 11:34:59;;;;;;;17.50;14.27;;;7.60;99.90;;;;;;5000975;28;20200;-64
2023/12/20 11:37:33;;;;;;;16.87;13.77;;;7.60;99.90;;;;;;4974746;28;20582;-64
2023/12/20 11:40:07;;;;;;;23.30;14.83;;;7.60;99.90;;;;;;5007933;28;20649;-64
2023/12/20 11:42:45;;;;;;;15.90;14.50;;;7.70;99.90;;;;;;5007631;28;20192;-65
2023/12/20 11:45:19;;;;;;;15.83;14.53;;;7.70;99.90;;;;;;4981481;28;20197;-65
2023/12/20 11:47:49;;;;;;;18.67;14.23;;;7.70;99.90;;;;;;5009513;28;20517;-64
2023/12/20 11:50:18;;;;;;;15.67;14.17;;;7.60;99.90;;;;;;4987515;28;20678;-64
2023/12/20 11:52:46;;;;;;;15.43;13.93;;;7.70;99.90;;;;;;4992284;28;20712;-65
2023/12/20 11:55:13;;;;;;;16.33;14.53;;;7.60;99.90;;;;;;5007769;28;20280;-65
2023/12/20 11:57:44;;;;;;;14.80;13.60;;;7.50;99.90;;;;;;4993837;28;20670;-64
2023/12/20 12:00:13;;;;;;;17.33;13.40;;;7.50;99.90;;;;;;4994122;28;20202;-65
2023/12/20 12:02:41;;;;;;;14.27;12.97;;;7.60;99.90;;;;;;5016119;28;20193;-65
2023/12/20 12:05:08;;;;;;;15.43;13.93;;;7.80;99.90;;;;;;4994839;28;20203;-64
2023/12/20 12:07:36;;;;;;;16.43;13.93;;;8.10;99.90;;;;;;4993340;28;20283;-65
2023/12/20 12:10:03;;;;;;;15.00;13.80;;;9.00;99.90;;;;;;4977765;28;20193;-65
2023/12/20 12:12:32;;;;;;;14.50;13.40;;;9.30;99.90;;;;;;5006348;28;20205;-64
2023/12/20 12:14:59;;;;;;;17.67;13.10;;;9.30;99.90;;;;;;5011389;28;20272;-64
2023/12/20 12:17:27;;;;;;;14.40;13.10;;;9.20;99.90;;;;;;5002778;28;20199;-64
2023/12/20 12:20:04;;;;;;;16.20;14.53;;;9.20;99.90;;;;;;5000595;28;20269;-64
2023/12/20 12:22:32;;;;;;;15.17;13.67;;;9.30;99.90;;;;;;4992285;28;20209;-65
2023/12/20 12:25:10;;;;;;;15.00;13.67;;;9.50;99.90;;;;;;4992467;28;20466;-64
2023/12/20 12:27:40;;;;;;;20.10;14.90;;;9.40;99.90;;;;;;4989526;28;20680;-64
2023/12/20 12:30:09;;;;;;;15.30;14.00;;;8.90;99.90;;;;;;4997005;28;20313;-64
2023/12/20 12:32:36;;;;;;;14.80;13.40;;;8.90;99.90;;;;;;4990330;28;20520;-64
2023/12/20 12:35:08;;;;;;;15.40;13.67;;;8.80;99.90;;;;;;4991715;28;20573;-64
2023/12/20 12:37:41;;;;;;;14.80;13.60;;;9.20;99.90;;;;;;4990441;28;20676;-66
2023/12/20 12:40:17;;;;;;;14.40;13.07;;;9.00;99.90;;;;;;4990186;28;20212;-68
2023/12/20 12:42:45;;;;;;;14.50;13.20;;;9.40;99.90;;;;;;4993521;28;20217;-68
2023/12/20 12:45:12;;;;;;;14.97;13.77;;;9.60;99.90;;;;;;4990284;28;20209;-68
2023/12/20 12:47:40;;;;;;;15.53;14.23;;;9.70;99.90;;;;;;4990322;28;20646;-68
2023/12/20 12:50:07;;;;;;;16.00;14.60;;;9.00;99.90;;;;;;4992982;28;20208;-69